Time;durP1;ratioP1;P1;durP2;ratioP2;P2;SDS_P1;SDS_P2;PMS_P1;PMS_P2;Temp;Humidity;BMP_temperature;BMP_pressure;BME280_temperature;BME280_humidity;BME280_pressure;Samples;Min_cycle;Max_cycle;Signal;HPM_P1;HPM_P2
2022/01/20 00:00:49;;;;;;;10.63;2.03;;;;;;;12.91;39.64;102186.84;4416227;32;20150;-69
2022/01/20 00:03:23;;;;;;;7.93;1.40;;;;;;;13.06;39.26;102191.97;4415403;32;20435;-69
2022/01/20 00:27:53;;;;;;;7.68;1.52;;;;;;;12.93;39.07;102221.94;4436104;32;20147;-69
2022/01/20 00:33:15;;;;;;;8.18;1.40;;;;;;;13.31;38.23;102208.63;3958209;32;15022700;-69
2022/01/20 00:38:27;;;;;;;12.18;1.85;;;;;;;12.44;39.76;102230.06;4414152;32;20072;-69
2022/01/20 00:40:54;;;;;;;8.25;1.55;;;;;;;12.87;39.03;102236.94;4416645;32;20042;-69
2022/01/20 00:43:19;;;;;;;8.98;1.60;;;;;;;12.97;38.74;102233.22;4415273;32;20095;-69
2022/01/20 00:45:47;;;;;;;10.85;1.67;;;;;;;12.64;39.36;102243.19;4411904;32;20491;-69
2022/01/20 00:48:13;;;;;;;9.73;2.05;;;;;;;12.91;38.84;102243.34;4410691;32;20078;-69
2022/01/20 00:50:39;;;;;;;12.90;1.62;;;;;;;12.66;39.19;102251.25;4412997;32;20029;-69
2022/01/20 00:53:04;;;;;;;12.77;2.00;;;;;;;12.87;39.07;102251.88;4414402;32;20120;-69
2022/01/20 00:55:30;;;;;;;9.32;1.20;;;;;;;12.85;38.96;102245.84;4412045;32;20092;-69
2022/01/20 00:57:56;;;;;;;16.10;2.25;;;;;;;12.97;38.72;102256.63;4412803;32;20109;-69
2022/01/20 01:00:22;;;;;;;12.73;3.08;;;;;;;12.67;39.10;102253.66;4410998;32;20540;-69
2022/01/20 01:02:48;;;;;;;14.40;1.95;;;;;;;12.80;38.71;102251.97;4408241;32;20196;-69
2022/01/20 01:05:14;;;;;;;7.70;1.40;;;;;;;12.70;39.07;102266.97;4411546;32;20049;-69
2022/01/20 01:10:27;;;;;;;13.65;1.77;;;;;;;13.16;38.24;102269.41;3977533;32;15020836;-69
2022/01/20 01:13:00;;;;;;;8.45;1.37;;;;;;;13.16;38.24;102269.41;4432670;32;20040;-69
2022/01/20 01:15:33;;;;;;;14.77;2.20;;;;;;;12.90;38.36;102262.34;4430876;32;20041;-69
2022/01/20 01:23:40;;;;;;;8.65;1.42;;;;;;;13.16;38.06;102273.00;3979917;32;15021761;-70
2022/01/20 01:26:08;;;;;;;14.15;1.60;;;;;;;13.16;38.06;102273.00;4432194;32;20048;-69
2022/01/20 01:28:36;;;;;;;13.60;1.55;;;;;;;12.70;38.46;102275.44;4431577;32;20311;-69
2022/01/20 01:33:52;;;;;;;9.38;1.65;;;;;;;12.74;38.69;102255.62;3987832;32;15022849;-69
2022/01/20 01:36:22;;;;;;;8.32;1.25;;;;;;;12.74;38.69;102255.62;4445932;32;20072;-69
2022/01/20 01:38:49;;;;;;;13.88;2.00;;;;;;;12.31;38.93;102243.06;4445878;32;20450;-69
2022/01/20 01:41:25;;;;;;;16.75;1.95;;;;;;;12.76;38.63;102254.00;4443068;32;20068;-69
2022/01/20 01:43:52;;;;;;;9.95;1.65;;;;;;;12.87;38.62;102254.72;4447379;32;20517;-69
2022/01/20 01:46:18;;;;;;;16.05;2.08;;;;;;;12.65;38.73;102264.59;4443642;32;20410;-69
2022/01/20 01:48:44;;;;;;;12.27;1.95;;;;;;;12.67;38.66;102279.09;4445634;32;20114;-69
2022/01/20 01:51:11;;;;;;;11.95;1.60;;;;;;;12.26;39.28;102280.19;4442604;32;20057;-69
2022/01/20 01:53:38;;;;;;;18.15;1.85;;;;;;;12.70;38.62;102292.38;4446925;32;20131;-69
2022/01/20 01:56:05;;;;;;;14.23;1.48;;;;;;;12.63;38.64;102303.75;4445293;32;20084;-69
2022/01/20 01:58:31;;;;;;;11.82;1.90;;;;;;;12.64;38.59;102302.50;4446095;32;20059;-69
2022/01/20 02:00:57;;;;;;;6.80;1.40;;;;;;;12.61;38.58;102306.16;4442961;32;20108;-69
2022/01/20 02:03:24;;;;;;;11.68;1.62;;;;;;;12.58;38.56;102325.97;4443828;32;20080;-69
2022/01/20 02:08:55;;;;;;;8.70;1.08;;;;;;;12.66;38.26;102333.97;3981576;32;15029851;-69
2022/01/20 02:19:43;;;;;;;13.85;1.80;;;;;;;12.42;38.58;102351.87;4428088;32;20068;-69
2022/01/20 02:22:08;;;;;;;11.18;1.85;;;;;;;12.47;38.65;102357.12;4431375;32;20065;-69
2022/01/20 02:24:34;;;;;;;14.40;1.90;;;;;;;12.42;38.72;102366.00;4428769;32;20329;-69
2022/01/20 02:27:00;;;;;;;7.85;1.75;;;;;;;12.15;39.27;102359.28;4428967;32;20073;-69
2022/01/20 02:29:25;;;;;;;17.55;2.15;;;;;;;12.18;39.06;102360.50;4427916;32;20509;-69
2022/01/20 02:31:54;;;;;;;10.45;1.70;;;;;;;12.30;39.19;102377.75;4427910;32;20052;-69
2022/01/20 02:34:22;;;;;;;14.43;1.87;;;;;;;12.15;39.69;102381.09;4429955;32;20065;-69
2022/01/20 02:36:48;;;;;;;11.48;2.08;;;;;;;12.31;39.24;102385.03;4431892;32;20080;-69
2022/01/20 02:47:29;;;;;;;14.38;2.33;;;;;;;12.30;39.37;102388.28;3979588;32;15021551;-68
2022/01/20 02:49:55;;;;;;;11.93;2.15;;;;;;;12.38;39.51;102401.12;4433046;32;20523;-68
2022/01/20 02:52:25;;;;;;;14.55;1.95;;;;;;;12.07;40.01;102400.06;4434025;32;20695;-68
2022/01/20 02:54:51;;;;;;;13.20;2.00;;;;;;;12.27;39.61;102392.69;4431028;32;20474;-69
2022/01/20 02:57:18;;;;;;;18.08;2.30;;;;;;;11.92;40.33;102392.84;4433352;32;20037;-69
2022/01/20 02:59:44;;;;;;;8.30;1.67;;;;;;;11.98;40.12;102396.88;4434716;32;20845;-69
2022/01/20 03:02:10;;;;;;;13.52;1.73;;;;;;;11.89;40.19;102404.97;4431868;32;20092;-69
2022/01/20 03:04:38;;;;;;;11.07;1.70;;;;;;;12.06;39.79;102401.28;4429430;32;20099;-69
2022/01/20 03:07:04;;;;;;;13.07;2.80;;;;;;;12.06;40.03;102412.56;4433019;32;20033;-69
2022/01/20 03:09:30;;;;;;;21.50;2.47;;;;;;;12.03;40.06;102414.19;4433138;32;20056;-69
2022/01/20 03:11:56;;;;;;;15.93;1.60;;;;;;;11.86;40.34;102408.59;4433759;32;20037;-69
2022/01/20 03:14:22;;;;;;;10.15;2.03;;;;;;;11.88;40.33;102409.00;4433238;32;20069;-69
2022/01/20 03:16:49;;;;;;;10.20;2.05;;;;;;;11.89;40.17;102404.97;4432671;32;20119;-69
2022/01/20 03:19:14;;;;;;;11.05;1.67;;;;;;;12.18;39.96;102414.91;4434315;32;20037;-69
2022/01/20 03:21:42;;;;;;;21.77;2.22;;;;;;;11.82;40.61;102424.72;4431613;32;20395;-69
2022/01/20 03:24:09;;;;;;;17.10;2.40;;;;;;;12.17;40.03;102424.59;4436667;32;20069;-69
2022/01/20 03:26:37;;;;;;;14.38;2.08;;;;;;;12.20;39.94;102426.63;4435181;32;20124;-69
2022/01/20 03:29:06;;;;;;;10.23;1.75;;;;;;;12.09;39.88;102409.72;4432986;32;20040;-69
2022/01/20 03:31:36;;;;;;;14.02;2.10;;;;;;;12.10;40.02;102405.69;4431996;32;20074;-69
2022/01/20 03:34:04;;;;;;;12.77;1.50;;;;;;;12.01;40.10;102399.69;4430789;32;20132;-69
2022/01/20 03:36:33;;;;;;;14.40;2.33;;;;;;;12.06;40.07;102421.81;4431134;32;20041;-69
2022/01/20 03:38:59;;;;;;;18.30;2.65;;;;;;;12.04;40.16;102432.75;4434580;32;20128;-69
2022/01/20 03:41:25;;;;;;;12.43;1.83;;;;;;;11.82;40.46;102427.56;4428540;32;20081;-69
2022/01/20 03:43:50;;;;;;;9.23;2.00;;;;;;;11.73;40.53;102425.12;4433335;32;20086;-69
2022/01/20 03:46:17;;;;;;;13.05;2.00;;;;;;;11.71;40.62;102432.41;4432475;32;20200;-69
2022/01/20 03:48:55;;;;;;;12.02;2.05;;;;;;;11.81;40.53;102423.09;4428106;32;20155;-69
2022/01/20 03:51:25;;;;;;;12.30;2.12;;;;;;;12.05;40.30;102428.69;4434240;32;20761;-69
2022/01/20 03:53:53;;;;;;;14.10;1.73;;;;;;;11.81;40.83;102418.28;4432378;32;20060;-69
2022/01/20 03:56:20;;;;;;;10.18;1.77;;;;;;;11.94;40.55;102425.09;4431747;32;20038;-69
2022/01/20 03:58:46;;;;;;;7.95;1.55;;;;;;;11.77;41.03;102423.13;4420937;32;20143;-69
2022/01/20 04:01:14;;;;;;;16.37;2.10;;;;;;;11.30;41.54;102417.94;4419352;32;20079;-69
2022/01/20 04:03:41;;;;;;;23.08;2.22;;;;;;;11.76;40.87;102429.19;4417944;32;20479;-69
2022/01/20 04:06:06;;;;;;;13.85;2.10;;;;;;;11.65;40.92;102426.37;4420806;32;20574;-69
2022/01/20 04:08:35;;;;;;;11.43;1.90;;;;;;;11.69;40.72;102420.75;4422599;32;20442;-69
2022/01/20 04:11:06;;;;;;;13.70;1.58;;;;;;;11.77;40.80;102431.59;4421891;32;20101;-69
2022/01/20 04:13:35;;;;;;;19.17;2.20;;;;;;;11.88;40.54;102454.91;4421966;32;20045;-69
2022/01/20 04:16:12;;;;;;;11.43;2.10;;;;;;;11.71;40.65;102452.12;4419338;32;20038;-69
2022/01/20 04:18:53;;;;;;;12.82;1.87;;;;;;;11.87;40.56;102446.87;4423764;32;20119;-69
2022/01/20 04:21:24;;;;;;;8.80;1.30;;;;;;;11.72;40.91;102467.88;4420098;32;20330;-69
2022/01/20 04:23:51;;;;;;;10.48;1.80;;;;;;;11.81;40.63;102466.22;4426062;32;20081;-69
2022/01/20 04:26:18;;;;;;;13.20;1.77;;;;;;;11.68;40.71;102465.03;4420962;32;20030;-69
2022/01/20 04:28:46;;;;;;;13.15;1.55;;;;;;;11.74;40.78;102473.91;4419966;32;20413;-69
2022/01/20 04:31:12;;;;;;;12.98;1.80;;;;;;;11.58;40.89;102477.13;4423403;32;20108;-69
2022/01/20 04:33:38;;;;;;;17.45;2.45;;;;;;;11.55;40.99;102482.75;4422823;32;20042;-69
2022/01/20 04:36:05;;;;;;;13.10;1.92;;;;;;;11.54;41.00;102496.03;4422555;32;20489;-69
2022/01/20 04:38:31;;;;;;;17.40;2.20;;;;;;;11.58;41.00;102496.84;4420934;32;20077;-69
2022/01/20 04:40:59;;;;;;;12.95;1.75;;;;;;;11.56;41.04;102501.25;4423434;32;20132;-69
2022/01/20 04:43:25;;;;;;;7.85;1.75;;;;;;;11.56;40.99;102502.09;4419940;32;20080;-69
2022/01/20 04:46:01;;;;;;;19.70;2.00;;;;;;;11.61;40.85;102504.50;4421860;32;20442;-69
2022/01/20 04:48:45;;;;;;;7.75;1.52;;;;;;;11.67;40.62;102504.94;4420443;32;20076;-69
2022/01/20 04:59:29;;;;;;;12.37;1.60;;;;;;;12.04;40.09;102517.41;4418150;32;19953;-69
2022/01/20 05:01:54;;;;;;;13.10;1.87;;;;;;;11.66;40.88;102509.75;4422934;32;20037;-69
2022/01/20 05:04:21;;;;;;;10.25;1.73;;;;;;;11.50;41.21;102516.97;4421829;32;20116;-69
2022/01/20 05:06:48;;;;;;;16.15;2.05;;;;;;;11.39;41.36;102514.16;4419756;32;20077;-69
2022/01/20 05:09:19;;;;;;;5.68;1.20;;;;;;;11.43;41.23;102516.97;4419890;32;20141;-69
2022/01/20 05:11:50;;;;;;;18.20;1.98;;;;;;;11.35;41.35;102513.34;4423644;32;20122;-69
2022/01/20 05:14:15;;;;;;;14.45;1.95;;;;;;;11.29;41.59;102516.97;4423947;32;20033;-69
2022/01/20 05:16:41;;;;;;;13.60;2.37;;;;;;;11.21;41.65;102515.34;4422346;32;20085;-69
2022/01/20 05:19:07;;;;;;;13.07;1.60;;;;;;;11.13;41.71;102522.16;4416851;32;20059;-69
2022/01/20 05:21:33;;;;;;;16.65;2.20;;;;;;;11.10;41.96;102509.69;4423643;32;20623;-69
2022/01/20 05:23:59;;;;;;;9.48;1.90;;;;;;;11.09;41.68;102504.44;4420708;32;20572;-69
2022/01/20 05:26:25;;;;;;;9.38;2.12;;;;;;;11.06;41.84;102510.88;4420342;32;20089;-69
2022/01/20 05:28:50;;;;;;;14.43;1.92;;;;;;;10.97;42.08;102510.47;4418537;32;20084;-69
2022/01/20 05:31:16;;;;;;;10.95;1.62;;;;;;;10.90;42.23;102516.91;4420255;32;20737;-69
2022/01/20 05:33:42;;;;;;;15.05;2.50;;;;;;;11.03;41.77;102517.31;4414688;32;20439;-69
2022/01/20 05:36:07;;;;;;;8.30;1.77;;;;;;;10.89;42.20;102523.72;4418584;32;20042;-69
2022/01/20 05:38:33;;;;;;;15.38;2.53;;;;;;;11.00;41.75;102530.19;4421562;32;20049;-69
2022/01/20 05:40:59;;;;;;;13.25;2.00;;;;;;;11.06;41.61;102536.25;4420407;32;20073;-69
2022/01/20 05:43:25;;;;;;;11.10;1.60;;;;;;;11.01;41.49;102531.00;4420158;32;20081;-70
2022/01/20 05:45:50;;;;;;;7.37;1.70;;;;;;;11.01;41.56;102545.88;4421283;32;20053;-69
2022/01/20 05:48:17;;;;;;;11.18;1.58;;;;;;;11.10;41.24;102540.69;4424207;32;20034;-69
2022/01/20 05:50:44;;;;;;;11.45;1.50;;;;;;;11.07;41.53;102538.66;4422607;32;20119;-69
2022/01/20 05:53:10;;;;;;;10.55;1.83;;;;;;;11.23;41.26;102524.22;4422190;32;20118;-69
2022/01/20 05:55:37;;;;;;;14.32;1.60;;;;;;;10.74;42.21;102524.09;4420882;32;20100;-69
2022/01/20 05:58:05;;;;;;;13.88;1.52;;;;;;;10.96;41.72;102528.56;4419176;32;20407;-69
2022/01/20 06:00:35;;;;;;;14.60;1.83;;;;;;;11.24;41.23;102525.81;4418878;32;20107;-69
2022/01/20 06:05:47;;;;;;;14.38;2.12;;;;;;;11.09;40.98;102533.44;4422988;32;20105;-69
2022/01/20 06:08:13;;;;;;;9.70;1.45;;;;;;;11.05;40.91;102526.97;4419267;32;20190;-69
2022/01/20 06:10:39;;;;;;;9.48;1.55;;;;;;;11.17;40.71;102537.09;4422524;32;20435;-69
2022/01/20 06:13:06;;;;;;;12.85;1.85;;;;;;;11.18;40.78;102533.06;4419424;32;20034;-69
2022/01/20 06:15:32;;;;;;;16.73;1.80;;;;;;;11.21;40.72;102535.06;4421787;32;20098;-70
2022/01/20 06:17:57;;;;;;;15.57;1.73;;;;;;;11.01;40.79;102533.81;4422553;32;20038;-70
2022/01/20 06:20:23;;;;;;;10.88;1.67;;;;;;;10.97;40.79;102533.00;4417372;32;20096;-70
2022/01/20 06:22:49;;;;;;;9.88;3.00;;;;;;;10.93;40.29;102537.81;4422212;32;20069;-70
2022/01/20 06:25:15;;;;;;;12.30;1.65;;;;;;;10.96;40.00;102534.22;4422579;32;20128;-70
2022/01/20 06:27:40;;;;;;;15.55;1.73;;;;;;;10.92;39.89;102539.03;4422225;32;20074;-70
2022/01/20 06:30:07;;;;;;;12.70;1.65;;;;;;;11.02;39.73;102543.88;4416916;32;20067;-70
2022/01/20 06:32:34;;;;;;;7.55;1.17;;;;;;;11.12;39.63;102546.75;4417897;32;20033;-70
2022/01/20 06:35:00;;;;;;;5.32;0.98;;;;;;;10.95;39.50;102555.16;4418081;32;20476;-70
2022/01/20 06:37:26;;;;;;;14.82;1.55;;;;;;;10.82;39.82;102554.69;4423916;32;20053;-70
2022/01/20 06:39:52;;;;;;;11.48;1.40;;;;;;;10.91;39.45;102562.75;4416436;32;20322;-70
2022/01/20 06:42:18;;;;;;;9.50;1.37;;;;;;;10.67;39.77;102567.09;4420048;32;20078;-69
2022/01/20 06:44:44;;;;;;;11.35;1.33;;;;;;;10.97;39.31;102569.63;4420050;32;20217;-69
2022/01/20 06:47:10;;;;;;;9.52;1.95;;;;;;;10.69;39.78;102583.59;4416750;32;20450;-70
2022/01/20 06:49:36;;;;;;;13.32;1.40;;;;;;;10.59;39.83;102590.78;4418237;32;20068;-70
2022/01/20 06:52:03;;;;;;;15.23;1.98;;;;;;;10.79;39.44;102597.72;4418721;32;20064;-69
2022/01/20 06:54:29;;;;;;;6.93;1.40;;;;;;;11.00;39.35;102594.19;4419683;32;20420;-70
2022/01/20 06:56:54;;;;;;;10.48;1.77;;;;;;;10.52;39.73;102587.91;4422238;32;20081;-70
2022/01/20 06:59:20;;;;;;;14.50;1.92;;;;;;;10.81;39.22;102600.16;4420093;32;20123;-70
2022/01/20 07:01:48;;;;;;;10.63;1.58;;;;;;;10.88;39.23;102602.97;4419059;32;20038;-70
2022/01/20 07:04:14;;;;;;;9.43;1.48;;;;;;;10.74;39.46;102606.53;4418697;32;20076;-70
2022/01/20 07:06:41;;;;;;;4.93;0.90;;;;;;;10.69;39.71;102614.56;4419689;32;20475;-70
2022/01/20 07:09:08;;;;;;;13.32;1.23;;;;;;;10.86;39.23;102611.81;4418658;32;20060;-70
2022/01/20 07:11:35;;;;;;;7.20;1.00;;;;;;;10.48;39.41;102618.06;4421740;32;20046;-70
2022/01/20 07:14:01;;;;;;;8.27;1.40;;;;;;;10.80;39.06;102615.44;4416896;32;20100;-70
2022/01/20 07:16:28;;;;;;;9.50;1.42;;;;;;;10.74;38.78;102629.06;4420264;32;20034;-70
2022/01/20 07:18:55;;;;;;;9.57;1.60;;;;;;;10.82;38.47;102624.28;4422159;32;20072;-70
2022/01/20 07:21:21;;;;;;;12.98;1.48;;;;;;;10.37;39.33;102622.81;4418855;32;20516;-70
2022/01/20 07:23:47;;;;;;;8.77;1.90;;;;;;;10.63;38.82;102624.59;4416214;32;20050;-70
2022/01/20 07:26:13;;;;;;;6.78;1.10;;;;;;;10.51;38.93;102624.91;4421901;32;20152;-70
2022/01/20 07:28:39;;;;;;;6.47;1.15;;;;;;;10.61;38.80;102622.16;4420547;32;20443;-70
2022/01/20 07:31:06;;;;;;;7.75;2.45;;;;;;;10.03;39.61;102627.75;4418441;32;20156;-70
2022/01/20 07:33:32;;;;;;;15.90;2.65;;;;;;;10.73;38.65;102638.72;4416614;32;20038;-70
2022/01/20 07:35:58;;;;;;;11.80;1.85;;;;;;;10.54;38.68;102646.66;4415778;32;20153;-71
2022/01/20 07:38:25;;;;;;;11.82;2.12;;;;;;;10.60;38.70;102654.34;4419147;32;20094;-70
2022/01/20 07:40:51;;;;;;;15.55;1.73;;;;;;;10.56;38.86;102656.34;4419545;32;20034;-70
2022/01/20 07:43:17;;;;;;;8.20;1.25;;;;;;;10.34;39.02;102659.38;4411657;32;20050;-70
2022/01/20 07:45:43;;;;;;;11.38;1.35;;;;;;;10.41;38.64;102656.63;4418624;32;20304;-70
2022/01/20 07:48:09;;;;;;;10.85;1.50;;;;;;;10.42;38.58;102661.03;4415366;32;20162;-70
2022/01/20 07:50:35;;;;;;;10.60;2.53;;;;;;;10.25;38.76;102650.47;4423830;32;20089;-70
2022/01/20 07:53:01;;;;;;;12.57;1.58;;;;;;;10.23;38.72;102664.13;4419215;32;20034;-70
2022/01/20 07:55:27;;;;;;;15.32;1.30;;;;;;;10.34;38.42;102665.81;4421606;32;20042;-70
2022/01/20 07:57:53;;;;;;;12.13;2.17;;;;;;;10.50;38.17;102671.16;4411762;32;20076;-70
2022/01/20 08:00:19;;;;;;;11.50;1.27;;;;;;;10.32;38.40;102667.41;4419661;32;20061;-69
2022/01/20 08:02:45;;;;;;;11.77;1.67;;;;;;;10.47;37.85;102675.56;4418641;32;20498;-70
2022/01/20 08:05:11;;;;;;;17.02;1.60;;;;;;;10.53;37.72;102676.81;4412107;32;20077;-70
2022/01/20 08:07:37;;;;;;;11.50;1.50;;;;;;;10.31;37.73;102677.84;4415303;32;20227;-70
2022/01/20 08:10:04;;;;;;;14.98;1.58;;;;;;;10.42;37.51;102677.94;4407322;32;20041;-69
2022/01/20 08:12:29;;;;;;;6.78;1.65;;;;;;;10.26;37.37;102685.84;4412394;32;20081;-69
2022/01/20 08:14:56;;;;;;;9.52;1.30;;;;;;;10.29;37.35;102679.44;4413458;32;20111;-69
2022/01/20 08:17:22;;;;;;;11.32;1.73;;;;;;;10.54;37.02;102677.63;4412247;32;20180;-69
2022/01/20 08:19:49;;;;;;;13.10;1.83;;;;;;;10.56;37.11;102681.69;4409420;32;20103;-70
2022/01/20 08:22:16;;;;;;;11.70;2.00;;;;;;;10.36;36.51;102685.94;4415520;32;20168;-69
2022/01/20 08:24:43;;;;;;;9.20;1.87;;;;;;;10.63;36.43;102701.44;4415520;32;20077;-70
2022/01/20 08:27:10;;;;;;;11.95;1.67;;;;;;;10.66;36.11;102699.81;4416465;32;20082;-70
2022/01/20 08:29:37;;;;;;;13.27;1.37;;;;;;;10.55;36.82;102696.16;4411371;32;20490;-70
2022/01/20 08:32:04;;;;;;;9.90;1.55;;;;;;;10.41;36.69;102710.91;4414662;32;20563;-69
2022/01/20 08:34:30;;;;;;;8.50;1.42;;;;;;;10.49;36.49;102711.78;4414461;32;20425;-70
2022/01/20 08:36:56;;;;;;;12.20;1.05;;;;;;;10.00;36.64;102718.56;4415760;32;21309;-70
2022/01/20 08:39:41;;;;;;;14.02;1.58;;;;;;;10.54;35.82;102715.03;4413254;32;20164;-70
2022/01/20 08:42:07;;;;;;;22.65;2.42;;;;;;;10.73;35.66;102719.56;4412749;32;20110;-70
2022/01/20 08:44:33;;;;;;;21.35;2.15;;;;;;;10.28;36.32;102731.31;4414409;32;20103;-70
2022/01/20 08:47:01;;;;;;;10.75;1.60;;;;;;;10.53;35.98;102732.31;4412806;32;20803;-70
2022/01/20 08:49:27;;;;;;;9.65;2.10;;;;;;;10.67;35.82;102729.59;4412328;32;20161;-70
2022/01/20 08:51:53;;;;;;;23.25;7.10;;;;;;;10.57;35.91;102741.59;4411473;32;20423;-70
2022/01/20 08:54:20;;;;;;;7.93;1.20;;;;;;;10.44;35.71;102732.66;4412248;32;20497;-69
2022/01/20 08:56:46;;;;;;;9.45;1.55;;;;;;;10.47;35.50;102736.69;4416588;32;20490;-70
2022/01/20 08:59:13;;;;;;;15.15;1.73;;;;;;;10.67;34.98;102738.84;4413383;32;20370;-70
2022/01/20 09:01:41;;;;;;;17.67;1.62;;;;;;;10.86;35.25;102732.16;4406115;32;20139;-70
2022/01/20 09:04:07;;;;;;;14.80;1.85;;;;;;;11.10;34.71;102734.31;4409054;32;20569;-70
2022/01/20 09:06:34;;;;;;;21.05;1.45;;;;;;;11.01;34.76;102740.28;4407289;32;20468;-71
2022/01/20 09:09:00;;;;;;;17.10;2.62;;;;;;;10.75;35.04;102754.63;4406650;32;20133;-70
2022/01/20 09:11:35;;;;;;;12.65;1.37;;;;;;;10.82;34.61;102751.84;4414448;32;20077;-71
2022/01/20 09:16:46;;;;;;;;;;;;;;;11.17;34.05;102762.53;4414340;32;20085;-70
2022/01/20 09:19:16;;;;;;;11.60;2.08;;;;;;;11.45;33.48;102769.09;4412127;32;19991;-70
2022/01/20 09:21:42;;;;;;;15.80;1.77;;;;;;;11.06;34.03;102779.37;4415011;32;21575;-70
2022/01/20 09:24:08;;;;;;;15.18;1.60;;;;;;;11.07;34.13;102781.00;4414360;32;20535;-70
2022/01/20 09:26:34;;;;;;;10.90;1.40;;;;;;;11.18;33.72;102783.88;4418878;32;20089;-70
2022/01/20 09:29:00;;;;;;;17.85;2.40;;;;;;;11.50;33.56;102780.03;4415166;32;20072;-71
2022/01/20 09:31:27;;;;;;;9.40;2.30;;;;;;;11.79;32.97;102793.06;4407539;32;20065;-71
2022/01/20 09:33:54;;;;;;;6.12;1.20;;;;;;;12.31;32.58;102796.44;4408853;32;20139;-70
2022/01/20 09:36:22;;;;;;;11.23;1.15;;;;;;;12.26;31.74;102803.28;4414223;32;20620;-70
2022/01/20 09:38:48;;;;;;;19.65;1.70;;;;;;;12.70;31.24;102803.72;4413950;32;20196;-70
2022/01/20 09:41:14;;;;;;;15.35;1.95;;;;;;;13.06;30.80;102811.00;4415185;32;20033;-70
2022/01/20 09:43:40;;;;;;;7.30;1.70;;;;;;;13.24;30.44;102802.47;4411227;32;20830;-70
2022/01/20 09:46:06;;;;;;;15.50;1.75;;;;;;;13.48;30.27;102816.56;4414140;32;20045;-70
2022/01/20 09:48:32;;;;;;;8.77;1.60;;;;;;;13.76;29.50;102826.97;4410282;32;20065;-70
2022/01/20 09:51:00;;;;;;;16.35;2.28;;;;;;;13.28;29.60;102823.06;4413606;32;20395;-70
2022/01/20 09:53:27;;;;;;;13.70;1.50;;;;;;;13.83;29.21;102815.63;4410831;32;20494;-70
2022/01/20 09:55:54;;;;;;;10.35;1.83;;;;;;;13.80;29.07;102822.09;4412910;32;20085;-70
2022/01/20 09:58:20;;;;;;;16.55;1.70;;;;;;;14.25;28.54;102823.94;4412707;32;20089;-70
2022/01/20 10:00:47;;;;;;;11.43;1.90;;;;;;;13.91;28.45;102817.22;4410603;32;20093;-72
2022/01/20 10:03:19;;;;;;;23.40;2.40;;;;;;;14.19;28.43;102819.87;4411168;32;20477;-70
2022/01/20 10:05:49;;;;;;;12.30;1.70;;;;;;;13.86;28.61;102823.28;4413906;32;20448;-71
2022/01/20 10:08:21;;;;;;;13.57;1.45;;;;;;;14.29;28.46;102819.03;4412389;32;20042;-71
2022/01/20 10:13:28;;;;;;;10.43;1.60;;;;;;;14.92;27.00;102838.41;3973429;32;15029663;-71
2022/01/20 10:15:57;;;;;;;14.93;1.70;;;;;;;14.27;27.94;102827.16;4422969;32;20130;-70
2022/01/20 10:18:23;;;;;;;17.15;1.40;;;;;;;14.17;27.95;102841.34;4424569;32;20091;-69
2022/01/20 10:20:53;;;;;;;15.25;1.92;;;;;;;14.52;27.50;102833.47;4420264;32;20273;-70
2022/01/20 10:23:28;;;;;;;14.07;1.95;;;;;;;14.65;27.83;102837.41;4423910;32;20080;-71
2022/01/20 10:26:15;;;;;;;16.10;1.85;;;;;;;14.82;27.36;102844.19;4423607;32;20399;-69
2022/01/20 10:28:53;;;;;;;15.82;2.15;;;;;;;14.79;27.53;102864.84;4423269;32;20546;-70
2022/01/20 10:31:31;;;;;;;17.33;2.15;;;;;;;14.38;27.60;102844.88;4422520;32;20376;-69
2022/01/20 10:33:56;;;;;;;23.85;2.03;;;;;;;14.58;27.69;102853.66;4422302;32;20180;-69
2022/01/20 10:36:23;;;;;;;11.43;1.75;;;;;;;14.07;28.18;102860.81;4422831;32;20629;-70
2022/01/20 10:38:54;;;;;;;9.10;1.87;;;;;;;14.05;27.69;102856.75;4423086;32;20466;-69
2022/01/20 10:44:10;;;;;;;13.15;2.22;;;;;;;13.71;28.64;102878.31;3978801;31;15016082;-70
2022/01/20 10:46:54;;;;;;;18.73;3.90;;;;;;;13.71;28.64;102878.31;4427522;32;20100;-69
2022/01/20 10:49:21;;;;;;;13.93;2.80;;;;;;;13.52;28.54;102876.78;4409551;32;20073;-70
2022/01/20 10:51:57;;;;;;;32.97;7.07;;;;;;;13.69;28.51;102875.91;4427863;32;20046;-69
2022/01/20 10:54:23;;;;;;;19.45;3.45;;;;;;;13.75;28.40;102877.09;4429075;32;20441;-68
2022/01/20 10:56:57;;;;;;;18.30;3.67;;;;;;;13.33;28.55;102877.22;4430374;32;20048;-69
2022/01/20 10:59:24;;;;;;;21.08;4.05;;;;;;;13.36;28.88;102882.06;4428890;32;20200;-68
2022/01/20 11:02:04;;;;;;;23.15;2.45;;;;;;;13.61;28.51;102882.81;4422145;32;20138;-69
2022/01/20 11:04:30;;;;;;;15.38;2.37;;;;;;;13.79;28.05;102889.25;4426973;32;20069;-69
2022/01/20 11:06:58;;;;;;;17.80;2.20;;;;;;;13.34;28.39;102892.97;4426745;32;20461;-69
2022/01/20 11:09:27;;;;;;;8.15;2.03;;;;;;;13.86;27.86;102891.22;4429741;32;20141;-70
2022/01/20 11:11:53;;;;;;;16.08;2.75;;;;;;;13.30;28.15;102905.50;4425693;32;20304;-70
2022/01/20 11:14:18;;;;;;;15.82;2.97;;;;;;;14.05;28.00;102900.03;4428560;32;20111;-71
2022/01/20 11:16:44;;;;;;;14.30;1.50;;;;;;;13.73;27.90;102893.69;4425933;32;20413;-71
2022/01/20 11:19:20;;;;;;;14.07;2.40;;;;;;;14.11;27.64;102906.09;4426306;32;20065;-70
2022/01/20 11:21:47;;;;;;;13.93;1.95;;;;;;;14.36;27.37;102914.50;4427617;32;20106;-70
2022/01/20 11:24:19;;;;;;;12.73;1.80;;;;;;;14.98;26.98;102930.31;4427931;32;20140;-70
2022/01/20 11:26:50;;;;;;;11.23;1.60;;;;;;;15.14;26.09;102927.75;4426162;32;20081;-70
2022/01/20 11:29:16;;;;;;;17.73;2.80;;;;;;;15.75;25.47;102935.34;4428899;32;20109;-69
2022/01/20 11:31:42;;;;;;;10.60;1.87;;;;;;;16.32;25.02;102926.13;4425811;32;20088;-71
2022/01/20 11:34:17;;;;;;;14.48;2.03;;;;;;;16.51;24.04;102934.03;4429992;32;20105;-71
2022/01/20 11:36:43;;;;;;;8.65;1.77;;;;;;;16.42;24.46;102917.47;4428894;32;20081;-71
2022/01/20 11:39:09;;;;;;;19.25;2.30;;;;;;;16.16;24.60;102926.72;4427486;32;20037;-71
2022/01/20 11:41:43;;;;;;;11.80;1.70;;;;;;;17.20;24.05;102926.47;4428643;32;20533;-71
2022/01/20 11:44:11;;;;;;;15.02;2.37;;;;;;;17.02;23.68;102928.78;4414451;32;20048;-71
2022/01/20 11:46:43;;;;;;;13.70;1.87;;;;;;;17.39;23.48;102914.31;4425215;32;20140;-70
2022/01/20 11:49:11;;;;;;;11.98;1.58;;;;;;;16.96;23.55;102924.81;4414723;32;20118;-70
2022/01/20 11:51:55;;;;;;;8.18;1.83;;;;;;;16.65;23.86;102920.41;4425129;32;20099;-70
2022/01/20 11:54:32;;;;;;;12.37;2.40;;;;;;;17.06;23.89;102920.19;4420551;32;20128;-69
2022/01/20 11:57:21;;;;;;;20.20;2.10;;;;;;;17.07;24.22;102914.09;4414092;32;20407;-69
2022/01/20 11:59:52;;;;;;;18.20;2.17;;;;;;;18.02;23.02;102914.37;4413239;32;20061;-69
2022/01/20 12:02:36;;;;;;;13.15;1.75;;;;;;;18.58;22.66;102913.19;4415511;32;20076;-69
2022/01/20 12:05:15;;;;;;;12.07;2.00;;;;;;;18.63;22.27;102912.69;4416864;32;21188;-70
2022/01/20 12:07:42;;;;;;;13.07;2.05;;;;;;;19.18;21.83;102907.63;4415361;32;20126;-70
2022/01/20 12:10:11;;;;;;;27.25;2.42;;;;;;;19.72;21.28;102899.31;4414101;32;20466;-70
2022/01/20 12:12:39;;;;;;;11.98;1.62;;;;;;;20.46;20.76;102911.47;4416517;32;20294;-70
2022/01/20 12:17:54;;;;;;;13.10;2.25;;;;;;;21.00;19.96;102906.47;3971436;32;15091970;-70
2022/01/20 12:20:21;;;;;;;5.03;1.67;;;;;;;20.44;20.29;102913.97;4418628;32;20076;-70
2022/01/20 12:22:48;;;;;;;8.95;1.67;;;;;;;19.09;21.25;102910.31;4422611;32;20102;-69
2022/01/20 12:25:22;;;;;;;18.35;2.55;;;;;;;18.79;21.70;102895.59;4422105;32;20087;-69
2022/01/20 12:27:49;;;;;;;10.13;1.52;;;;;;;18.21;22.99;102905.03;4432338;32;20085;-69
2022/01/20 12:30:18;;;;;;;18.77;5.07;;;;;;;17.44;23.77;102904.53;4421583;32;20046;-69
2022/01/20 12:38:38;;;;;;;7.97;1.67;;;;;;;17.33;24.11;102901.84;3971896;32;15029586;-70
2022/01/20 12:46:22;;;;;;;11.98;1.90;;;;;;;16.95;24.56;102903.31;3970581;32;15023679;-70
2022/01/20 12:51:51;;;;;;;16.17;2.28;;;;;;;16.65;25.22;102900.50;3957035;32;15029322;-68
2022/01/20 12:54:26;;;;;;;23.45;2.42;;;;;;;16.65;25.22;102900.50;4409474;32;20666;-70
2022/01/20 12:56:53;;;;;;;;;;;;;;;16.71;24.69;102895.94;4414644;32;20642;-70